ADDS METAR Data INFO
IDs: Format: Raw Decoded Include TAF

Data at: 1013 UTC 14 Dec 2017

KVDI 140955Z AUTO 23005KT 10SM CLR 03/01 A2992 RMK AO2
KVDI 140935Z AUTO 23006KT 10SM CLR 04/01 A2992 RMK AO2
KVDI 140915Z AUTO 22006KT 10SM CLR 04/01 A2992 RMK AO2
KVDI 140855Z AUTO 24006KT 10SM CLR 04/01 A2993 RMK AO2
KVDI 140835Z AUTO 24005KT 10SM CLR 04/01 A2994 RMK AO2
KVDI 140815Z AUTO 24005KT 10SM CLR 05/01 A2994 RMK AO2
KVDI 140755Z AUTO 24005KT 10SM CLR 05/00 A2994 RMK AO2
KVDI 140735Z AUTO 23005KT 10SM CLR 05/00 A2994 RMK AO2
KVDI 140715Z AUTO 24007KT 10SM CLR 06/00 A2994 RMK AO2
KVDI 140655Z AUTO 25005KT 10SM CLR 06/00 A2994 RMK AO2
KVDI 140635Z AUTO 26004KT 10SM CLR 06/00 A2994 RMK AO2
KVDI 140615Z AUTO 25006KT 10SM CLR 06/M01 A2993 RMK AO2
KVDI 140555Z AUTO 25006KT 10SM CLR 07/M01 A2993 RMK AO2
KVDI 140535Z AUTO 25006KT 10SM CLR 06/M02 A2993 RMK AO2
KVDI 140515Z AUTO 24006KT 10SM CLR 06/M02 A2993 RMK AO2
KVDI 140455Z AUTO 23007KT 10SM CLR 05/M02 A2992 RMK AO2
KVDI 140435Z AUTO 23007KT 10SM CLR 06/M02 A2992 RMK AO2
KVDI 140415Z AUTO 22006KT 10SM CLR 05/M02 A2993 RMK AO2
KVDI 140355Z AUTO 23005KT 10SM CLR 05/M02 A2994 RMK AO2
KVDI 140335Z AUTO 23006KT 10SM CLR 05/M02 A2994 RMK AO2
KVDI 140315Z AUTO 22004KT 10SM CLR 05/M02 A2994 RMK AO2
KVDI 140255Z AUTO 22004KT 10SM CLR 05/M02 A2994 RMK AO2
KVDI 140235Z AUTO 22004KT 10SM CLR 05/M02 A2994 RMK AO2
KVDI 140215Z AUTO 23004KT 10SM CLR 05/M02 A2995 RMK AO2
KVDI 140155Z AUTO 23004KT 10SM CLR 06/M02 A2994 RMK AO2
KVDI 140135Z AUTO 22006KT 10SM CLR 06/M01 A2994 RMK AO2
KVDI 140115Z AUTO 22003KT 10SM CLR 05/M01 A2995 RMK AO2
KVDI 140055Z AUTO 22004KT 10SM CLR 05/M02 A2996 RMK AO2
KVDI 140035Z AUTO 23005KT 10SM CLR 06/M02 A2997 RMK AO2
KVDI 140015Z AUTO 23004KT 10SM CLR 06/M01 A2997 RMK AO2
KVDI 132355Z AUTO 23004KT 10SM CLR 06/M01 A2996 RMK AO2
KVDI 132335Z AUTO 22004KT 10SM CLR 07/M02 A2996 RMK AO2
KVDI 132315Z AUTO 23004KT 10SM CLR 07/M02 A2996 RMK AO2
KVDI 132255Z AUTO 22003KT 10SM CLR 08/M02 A2997 RMK AO2
KVDI 132235Z AUTO 24004KT 10SM CLR 10/M03 A2997 RMK AO2
KVDI 132215Z AUTO 24004KT 10SM CLR 10/M03 A2998 RMK AO2
KVDI 132155Z AUTO 23008KT 10SM CLR 11/M03 A2998 RMK AO2
KVDI 132135Z AUTO 24008KT 10SM CLR 12/M03 A2998 RMK AO2
KVDI 132115Z AUTO 24006KT 10SM CLR 12/M03 A2998 RMK AO2
KVDI 132055Z AUTO 25006KT 10SM CLR 12/M03 A2997 RMK AO2
KVDI 132035Z AUTO 23008G15KT 190V260 10SM CLR 13/M03 A2998 RMK AO2
KVDI 132015Z AUTO 23005KT 10SM CLR 13/M04 A2999 RMK AO2
KVDI 131955Z AUTO 25007KT 10SM CLR 12/M05 A2999 RMK AO2
KVDI 131935Z AUTO 24006KT 10SM CLR 12/M05 A3000 RMK AO2
KVDI 131915Z AUTO 27004KT 10SM CLR 12/M05 A3000 RMK AO2
KVDI 131855Z AUTO 28005KT 10SM CLR 12/M05 A3002 RMK AO2
KVDI 131835Z AUTO 26007KT 220V290 10SM CLR 11/M05 A3002 RMK AO2
KVDI 131815Z AUTO 24005KT 10SM CLR 11/M06 A3003 RMK AO2
KVDI 131755Z AUTO 25006KT 10SM CLR 10/M06 A3005 RMK AO2
KVDI 131735Z AUTO 24006KT 10SM CLR 10/M06 A3006 RMK AO2
KVDI 131715Z AUTO 22005KT 10SM CLR 10/M06 A3007 RMK AO2
KVDI 131655Z AUTO 29003KT 10SM CLR 08/M06 A3008 RMK AO2
KVDI 131635Z AUTO 30003KT 10SM CLR 08/M06 A3009 RMK AO2
KVDI 131615Z AUTO 00000KT 10SM CLR 07/M07 A3010 RMK AO2
KVDI 131555Z AUTO 28003KT 10SM CLR 06/M07 A3011 RMK AO2
KVDI 131535Z AUTO 28005KT 10SM CLR 06/M07 A3011 RMK AO2
KVDI 131515Z AUTO 26004KT 10SM CLR 06/M07 A3011 RMK AO2
KVDI 131455Z AUTO 32004KT 10SM CLR 05/M07 A3011 RMK AO2
KVDI 131435Z AUTO 30005KT 10SM CLR 05/M07 A3011 RMK AO2
KVDI 131415Z AUTO 31005KT 10SM CLR 04/M07 A3010 RMK AO2
KVDI 131355Z AUTO 32006KT 10SM CLR 03/M06 A3010 RMK AO2
KVDI 131335Z AUTO 32007KT 10SM CLR 03/M06 A3009 RMK AO2
KVDI 131315Z AUTO 30003KT 10SM CLR 02/M05 A3008 RMK AO2
KVDI 131255Z AUTO 28003KT 10SM CLR 02/M05 A3008 RMK AO2
KVDI 131235Z AUTO 28003KT 10SM CLR 01/M06 A3007 RMK AO2
KVDI 131215Z AUTO 32005KT 10SM CLR 01/M06 A3007 RMK AO2
KVDI 131155Z AUTO 31005KT 10SM CLR 02/M06 A3006 RMK AO2
KVDI 131135Z AUTO 32008KT 10SM CLR 02/M05 A3005 RMK AO2
KVDI 131115Z AUTO 31004KT 10SM CLR 02/M04 A3004 RMK AO2
KVDI 131055Z AUTO 32004KT 10SM CLR 02/M04 A3004 RMK AO2
KVDI 131035Z AUTO 31007KT 10SM CLR 03/M04 A3003 RMK AO2
KVDI 131015Z AUTO 32007KT 10SM CLR 03/M03 A3002 RMK AO2
KVDI 130955Z AUTO 31007KT 10SM CLR 03/M02 A3002 RMK AO2
KVDI 130935Z AUTO 31007KT 10SM CLR 03/M02 A3002 RMK AO2
KVDI 130915Z AUTO 32007KT 10SM CLR 03/M02 A3002 RMK AO2
KVDI 130855Z AUTO 31008KT 10SM CLR 04/M01 A3001 RMK AO2
KVDI 130835Z AUTO 30005KT 10SM CLR 04/M01 A3001 RMK AO2
KVDI 130815Z AUTO 31005KT 10SM CLR 05/M01 A3001 RMK AO2
KVDI 130755Z AUTO 29007KT 10SM CLR 05/M01 A3000 RMK AO2
KVDI 130735Z AUTO 29006G14KT 10SM CLR 05/M01 A2999 RMK AO2
KVDI 130715Z AUTO 30006KT 10SM CLR 05/00 A2998 RMK AO2
KVDI 130655Z AUTO 31005KT 10SM CLR 05/00 A2998 RMK AO2
KVDI 130635Z AUTO 30007KT 10SM CLR 06/00 A2998 RMK AO2
KVDI 130615Z AUTO 29006KT 10SM CLR 06/00 A2997 RMK AO2
KVDI 130555Z AUTO 29006KT 10SM CLR 06/00 A2998 RMK AO2
KVDI 130535Z AUTO 28007KT 10SM CLR 06/00 A2997 RMK AO2
KVDI 130515Z AUTO 28005KT 10SM CLR 06/01 A2997 RMK AO2
KVDI 130455Z AUTO 28005KT 10SM CLR 07/01 A2998 RMK AO2
KVDI 130435Z AUTO 28006KT 10SM CLR 07/01 A2998 RMK AO2
KVDI 130415Z AUTO 29008KT 10SM CLR 07/01 A2998 RMK AO2
KVDI 130355Z AUTO 27003KT 10SM CLR 07/01 A2998 RMK AO2
KVDI 130335Z AUTO 29005KT 10SM CLR 07/01 A2997 RMK AO2
KVDI 130255Z AUTO 29006KT 10SM CLR 07/01 A2997 RMK AO2
KVDI 130235Z AUTO 28007KT 10SM CLR 08/01 A2996 RMK AO2
KVDI 130215Z AUTO 28005KT 10SM CLR 08/01 A2996 RMK AO2
KVDI 130155Z AUTO 28004KT 10SM CLR 08/01 A2995 RMK AO2
KVDI 130135Z AUTO 29004KT 10SM CLR 08/01 A2995 RMK AO2
KVDI 130115Z AUTO 29005KT 10SM CLR 09/01 A2995 RMK AO2
KVDI 130055Z AUTO 29005KT 10SM CLR 09/01 A2995 RMK AO2
KVDI 130035Z AUTO 30008KT 10SM CLR 10/01 A2994 RMK AO2
KVDI 130015Z AUTO 30009KT 10SM CLR 10/01 A2993 RMK AO2
KVDI 122355Z AUTO 30009G14KT 10SM CLR 10/01 A2992 RMK AO2
KVDI 122335Z AUTO 31009G15KT 10SM CLR 11/01 A2991 RMK AO2
KVDI 122315Z AUTO 30009G14KT 280V340 10SM CLR 11/01 A2991 RMK AO2
KVDI 122255Z AUTO 30008G15KT 10SM CLR 12/02 A2989 RMK AO2
KVDI 122235Z AUTO 29006KT 10SM CLR 12/02 A2988 RMK AO2
KVDI 122215Z AUTO 30011G18KT 10SM CLR 13/02 A2988 RMK AO2